createdAt,value
2017-10-15T00:01:58.802Z,10.40
2017-10-15T00:04:25.167Z,10.40
2017-10-15T00:06:51.578Z,10.30
2017-10-15T00:09:18.007Z,10.20
2017-10-15T00:11:45.123Z,10.20
2017-10-15T00:14:11.515Z,10.20
2017-10-15T00:16:37.920Z,10.20
2017-10-15T00:19:04.319Z,10.20
2017-10-15T00:21:30.783Z,10.20
2017-10-15T00:23:57.199Z,10.10
2017-10-15T00:26:23.651Z,10.10
2017-10-15T00:28:50.108Z,10.00
2017-10-15T00:31:16.471Z,10.00
2017-10-15T00:33:43.611Z,10.10
2017-10-15T00:36:09.978Z,10.00
2017-10-15T00:38:36.415Z,10.00
2017-10-15T00:41:02.844Z,10.00
2017-10-15T00:43:29.273Z,9.90
2017-10-15T00:45:55.659Z,9.90
2017-10-15T00:48:22.100Z,9.90
2017-10-15T00:50:48.519Z,9.80
2017-10-15T00:53:14.926Z,9.80
2017-10-15T00:55:41.371Z,9.70
2017-10-15T00:58:08.543Z,9.60
2017-10-15T01:00:35.023Z,9.70
2017-10-15T01:03:01.519Z,9.70
2017-10-15T01:05:27.979Z,9.60
2017-10-15T01:07:55.503Z,9.60
2017-10-15T01:10:22.699Z,9.60
2017-10-15T01:12:49.093Z,9.60
2017-10-15T01:15:15.500Z,9.60
2017-10-15T01:17:41.915Z,9.50
2017-10-15T01:20:08.344Z,9.60
2017-10-15T01:22:34.794Z,9.60
2017-10-15T01:25:02.215Z,9.80
2017-10-15T01:27:28.627Z,9.80
2017-10-15T01:29:56.132Z,9.70
2017-10-15T01:32:23.286Z,9.60
2017-10-15T01:34:49.739Z,9.50
2017-10-15T01:37:16.137Z,9.50
2017-10-15T01:39:42.533Z,9.40
2017-10-15T01:42:08.903Z,9.30
2017-10-15T01:44:36.140Z,9.30
2017-10-15T01:47:02.559Z,9.30
2017-10-15T01:49:29.036Z,9.40
2017-10-15T01:51:55.512Z,9.30
2017-10-15T01:54:22.692Z,9.20
2017-10-15T01:56:50.149Z,9.20
2017-10-15T01:59:18.082Z,9.20
2017-10-15T02:01:44.520Z,9.20
2017-10-15T02:04:10.887Z,9.20
2017-10-15T02:06:38.325Z,9.30
2017-10-15T02:09:05.459Z,9.20
2017-10-15T02:11:32.607Z,9.10
2017-10-15T02:13:59.044Z,9.10
2017-10-15T02:16:25.485Z,9.10
2017-10-15T02:18:51.872Z,9.20
2017-10-15T02:21:18.304Z,9.10
2017-10-15T02:23:44.719Z,9.20
2017-10-15T02:26:11.111Z,9.20
2017-10-15T02:28:37.538Z,9.10
2017-10-15T02:31:03.955Z,9.00
2017-10-15T02:33:30.407Z,9.00
2017-10-15T02:35:56.825Z,9.10
2017-10-15T02:38:23.187Z,9.00
2017-10-15T02:40:49.595Z,8.90
2017-10-15T02:43:16.767Z,9.00
2017-10-15T02:45:43.184Z,8.90
2017-10-15T02:48:09.606Z,8.90
2017-10-15T02:50:36.032Z,8.90
2017-10-15T02:53:02.411Z,9.00
2017-10-15T02:55:28.816Z,9.00
2017-10-15T02:57:55.211Z,8.90
2017-10-15T03:00:21.619Z,8.90
2017-10-15T03:02:47.997Z,9.10
2017-10-15T03:05:14.435Z,9.10
2017-10-15T03:07:40.815Z,9.00
2017-10-15T03:10:07.227Z,8.80
2017-10-15T03:12:33.584Z,8.90
2017-10-15T03:14:59.971Z,8.90
2017-10-15T03:17:26.363Z,8.80
2017-10-15T03:19:53.504Z,8.70
2017-10-15T03:22:20.647Z,8.80
2017-10-15T03:24:47.042Z,8.80
2017-10-15T03:27:13.519Z,8.70
2017-10-15T03:29:39.887Z,8.80
2017-10-15T03:32:07.010Z,8.80
2017-10-15T03:34:34.150Z,8.70
2017-10-15T03:37:02.337Z,8.70
2017-10-15T03:39:28.718Z,8.70
2017-10-15T03:41:55.175Z,8.70
2017-10-15T03:44:21.559Z,8.70
2017-10-15T03:46:47.903Z,8.70
2017-10-15T03:49:14.343Z,8.60
2017-10-15T03:51:40.732Z,8.60
2017-10-15T03:54:07.183Z,8.60
2017-10-15T03:56:33.575Z,8.40
2017-10-15T03:58:59.968Z,8.40
2017-10-15T04:01:27.079Z,8.60
2017-10-15T04:03:53.503Z,8.60
2017-10-15T04:06:19.889Z,8.60
2017-10-15T04:08:47.293Z,8.50
2017-10-15T04:11:13.679Z,8.50
2017-10-15T04:13:40.819Z,8.40
2017-10-15T04:16:07.215Z,8.30
2017-10-15T04:18:34.723Z,8.40
2017-10-15T04:21:01.121Z,8.30
2017-10-15T04:23:27.559Z,8.30
2017-10-15T04:25:53.955Z,8.30
2017-10-15T04:28:20.370Z,8.30
2017-10-15T04:30:46.732Z,8.10
2017-10-15T04:33:13.843Z,8.20
2017-10-15T04:35:40.198Z,8.20
2017-10-15T04:38:07.328Z,8.20
2017-10-15T04:40:33.748Z,8.20
2017-10-15T04:43:00.140Z,8.20
2017-10-15T04:45:26.492Z,8.20
2017-10-15T04:47:52.919Z,8.30
2017-10-15T04:50:19.283Z,8.30
2017-10-15T04:52:46.699Z,8.30
2017-10-15T04:55:13.112Z,8.20
2017-10-15T04:57:39.523Z,8.10
2017-10-15T05:00:05.951Z,8.10
2017-10-15T05:02:32.335Z,8.10
2017-10-15T05:04:59.519Z,8.10
2017-10-15T05:07:25.930Z,8.00
2017-10-15T05:09:52.343Z,8.10
2017-10-15T05:12:18.731Z,8.10
2017-10-15T05:14:45.092Z,8.10
2017-10-15T05:17:11.499Z,8.00
2017-10-15T05:19:37.920Z,8.00
2017-10-15T05:22:04.312Z,8.00
2017-10-15T05:24:30.691Z,8.00
2017-10-15T05:26:57.107Z,8.10
2017-10-15T05:29:24.225Z,8.00
2017-10-15T05:31:51.383Z,8.00
2017-10-15T05:34:17.743Z,8.00
2017-10-15T05:36:44.164Z,8.10
2017-10-15T05:39:10.555Z,8.10
2017-10-15T05:41:36.943Z,8.10
2017-10-15T05:44:04.067Z,8.10
2017-10-15T05:46:30.471Z,8.10
2017-10-15T05:48:56.845Z,8.20
2017-10-15T05:51:23.227Z,8.30
2017-10-15T05:53:49.715Z,8.40
2017-10-15T05:56:16.107Z,8.40
2017-10-15T05:58:43.385Z,8.50
2017-10-15T06:01:10.518Z,8.60
2017-10-15T06:03:36.945Z,8.60
2017-10-15T06:06:04.122Z,8.80
2017-10-15T06:08:30.547Z,8.80
2017-10-15T06:10:56.946Z,8.90
2017-10-15T06:13:23.328Z,9.00
2017-10-15T06:15:50.463Z,9.10
2017-10-15T06:18:16.795Z,9.10
2017-10-15T06:20:43.244Z,9.20
2017-10-15T06:23:09.667Z,9.10
2017-10-15T06:25:36.015Z,9.30
2017-10-15T06:28:02.459Z,9.30
2017-10-15T06:30:28.803Z,9.40
2017-10-15T06:32:55.155Z,9.40
2017-10-15T06:35:21.523Z,9.50
2017-10-15T06:37:47.887Z,9.60
2017-10-15T06:40:15.039Z,9.70
2017-10-15T06:42:42.159Z,9.80
2017-10-15T06:45:08.653Z,9.80
2017-10-15T06:47:35.056Z,9.90
2017-10-15T06:50:01.468Z,10.00
2017-10-15T06:52:27.859Z,10.00
2017-10-15T06:54:54.227Z,10.10
2017-10-15T06:57:20.641Z,10.10
2017-10-15T06:59:47.795Z,10.30
2017-10-15T07:02:14.176Z,10.30
2017-10-15T07:04:40.585Z,10.40
2017-10-15T07:07:06.995Z,10.50
2017-10-15T07:09:33.363Z,10.60
2017-10-15T07:12:00.515Z,10.70
2017-10-15T07:14:26.926Z,10.70
2017-10-15T07:16:54.059Z,10.90
2017-10-15T07:19:21.193Z,10.90
2017-10-15T07:21:47.608Z,10.90
2017-10-15T07:24:14.683Z,11.10
2017-10-15T07:26:41.059Z,11.10
2017-10-15T07:29:07.463Z,11.20
2017-10-15T07:31:34.612Z,11.40
2017-10-15T07:34:01.057Z,11.40
2017-10-15T07:36:27.475Z,11.50
2017-10-15T07:38:53.901Z,11.50
2017-10-15T07:41:20.274Z,11.60
2017-10-15T07:43:46.692Z,11.60
2017-10-15T07:46:13.845Z,11.60
2017-10-15T07:48:40.239Z,11.60
2017-10-15T07:51:07.391Z,11.70
2017-10-15T07:53:33.772Z,11.60
2017-10-15T07:56:00.180Z,11.70
2017-10-15T07:58:26.559Z,11.80
2017-10-15T08:00:52.950Z,11.80
2017-10-15T08:03:20.085Z,11.90
2017-10-15T08:05:46.517Z,11.90
2017-10-15T08:08:12.896Z,11.90
2017-10-15T08:10:40.047Z,12.00
2017-10-15T08:13:06.392Z,12.00
2017-10-15T08:15:32.819Z,12.00
2017-10-15T08:17:59.221Z,12.00
2017-10-15T08:20:25.632Z,12.10
2017-10-15T08:22:52.029Z,12.10
2017-10-15T08:25:18.427Z,12.20
2017-10-15T08:27:45.575Z,12.20
2017-10-15T08:30:11.999Z,12.20
2017-10-15T08:32:38.443Z,12.20
2017-10-15T08:35:04.888Z,12.10
2017-10-15T08:37:31.289Z,12.20
2017-10-15T08:39:57.696Z,12.30
2017-10-15T08:42:24.110Z,12.30
2017-10-15T08:44:50.551Z,12.30
2017-10-15T08:47:17.667Z,12.30
2017-10-15T08:49:44.072Z,12.30
2017-10-15T08:52:10.544Z,12.20
2017-10-15T08:54:37.695Z,12.40
2017-10-15T08:57:04.835Z,12.50
2017-10-15T08:59:31.235Z,12.40
2017-10-15T09:01:58.392Z,12.40
2017-10-15T09:04:24.833Z,12.40
2017-10-15T09:06:51.183Z,12.50
2017-10-15T09:09:17.580Z,12.60
2017-10-15T09:11:43.967Z,12.50
2017-10-15T09:14:10.395Z,12.70
2017-10-15T09:16:36.747Z,12.70
2017-10-15T09:19:03.148Z,12.70
2017-10-15T09:21:29.537Z,12.60
2017-10-15T09:23:56.019Z,12.70
2017-10-15T09:26:23.691Z,12.80
2017-10-15T09:28:50.051Z,12.80
2017-10-15T09:31:16.467Z,12.80
2017-10-15T09:33:42.865Z,12.90
2017-10-15T09:36:09.207Z,12.90
2017-10-15T09:38:35.645Z,12.80
2017-10-15T09:41:02.024Z,12.70
2017-10-15T09:43:28.423Z,12.80
2017-10-15T09:45:54.836Z,12.90
2017-10-15T09:48:21.218Z,13.00
2017-10-15T09:50:48.637Z,13.00
2017-10-15T09:53:15.036Z,13.10
2017-10-15T09:55:41.444Z,13.20
2017-10-15T09:58:07.883Z,13.30
2017-10-15T10:00:34.288Z,13.30
2017-10-15T10:03:00.833Z,13.40
2017-10-15T10:05:27.972Z,13.30
2017-10-15T10:07:55.087Z,13.30
2017-10-15T10:10:21.474Z,13.30
2017-10-15T10:12:47.868Z,13.30
2017-10-15T10:15:14.227Z,13.40
2017-10-15T10:17:40.641Z,13.50
2017-10-15T10:20:07.099Z,13.50
2017-10-15T10:22:34.249Z,13.80
2017-10-15T10:25:00.682Z,13.70
2017-10-15T10:27:27.048Z,13.70
2017-10-15T10:29:53.443Z,13.70
2017-10-15T10:32:19.838Z,13.70
2017-10-15T10:34:46.218Z,13.70
2017-10-15T10:37:14.472Z,13.90
2017-10-15T10:39:40.855Z,13.90
2017-10-15T10:42:07.279Z,13.90
2017-10-15T10:44:33.676Z,13.90
2017-10-15T10:47:00.051Z,13.90
2017-10-15T10:49:27.163Z,13.90
2017-10-15T10:51:54.344Z,13.90
2017-10-15T10:54:20.807Z,13.90
2017-10-15T10:56:47.229Z,13.90
2017-10-15T10:59:14.376Z,13.90
2017-10-15T11:01:40.795Z,13.90
2017-10-15T11:04:07.207Z,14.00
2017-10-15T11:06:33.576Z,14.00
2017-10-15T11:08:59.995Z,14.10
2017-10-15T11:11:26.375Z,14.10
2017-10-15T11:13:52.758Z,14.20
2017-10-15T11:16:19.955Z,14.10
2017-10-15T11:18:46.459Z,14.10
2017-10-15T11:21:12.904Z,14.10
2017-10-15T11:23:40.121Z,14.10
2017-10-15T11:26:06.540Z,14.10
2017-10-15T11:28:32.929Z,14.10
2017-10-15T11:31:00.116Z,14.20
2017-10-15T11:33:26.603Z,14.20
2017-10-15T11:35:52.959Z,14.30
2017-10-15T11:38:19.384Z,14.30
2017-10-15T11:40:47.120Z,14.30
2017-10-15T11:43:13.635Z,14.40
2017-10-15T11:45:40.836Z,14.50
2017-10-15T11:48:07.335Z,14.50
2017-10-15T11:50:33.874Z,14.40
2017-10-15T11:53:00.335Z,14.40
2017-10-15T11:55:27.780Z,14.30
2017-10-15T11:57:54.273Z,14.30
2017-10-15T12:00:20.715Z,14.30
2017-10-15T12:02:47.877Z,14.60
2017-10-15T12:05:14.430Z,14.60
2017-10-15T12:07:42.725Z,14.80
2017-10-15T12:10:09.131Z,14.80
2017-10-15T12:12:35.724Z,14.90
2017-10-15T12:15:02.264Z,14.80
2017-10-15T12:17:28.919Z,14.70
2017-10-15T12:19:55.340Z,14.80
2017-10-15T12:22:22.792Z,14.70
2017-10-15T12:24:49.372Z,14.70
2017-10-15T12:27:16.042Z,14.80
2017-10-15T12:29:42.642Z,14.90
2017-10-15T12:32:09.147Z,14.90
2017-10-15T12:34:35.744Z,15.00
2017-10-15T12:37:02.477Z,15.00
2017-10-15T12:39:29.277Z,15.00
2017-10-15T12:41:55.874Z,15.00
2017-10-15T12:44:23.098Z,14.90
2017-10-15T12:46:49.498Z,14.90
2017-10-15T12:49:16.198Z,14.90
2017-10-15T12:51:43.867Z,14.90
2017-10-15T12:54:10.643Z,14.90
2017-10-15T12:56:37.497Z,14.80
2017-10-15T12:59:04.579Z,15.00
2017-10-15T13:01:31.551Z,15.00
2017-10-15T13:03:58.268Z,15.00
2017-10-15T13:06:25.268Z,15.00
2017-10-15T13:08:52.159Z,15.10
2017-10-15T13:11:19.358Z,15.10
2017-10-15T13:13:46.765Z,15.20
2017-10-15T13:16:13.503Z,15.10
2017-10-15T13:18:40.276Z,15.20
2017-10-15T13:21:07.071Z,15.20
2017-10-15T13:23:34.260Z,15.20
2017-10-15T13:26:01.759Z,15.10
2017-10-15T13:28:28.918Z,15.00
2017-10-15T13:30:55.654Z,15.00
2017-10-15T13:33:22.247Z,14.90
2017-10-15T13:35:48.840Z,14.80
2017-10-15T13:38:15.463Z,14.90
2017-10-15T13:40:42.026Z,14.80
2017-10-15T13:43:08.555Z,14.80
2017-10-15T13:45:36.204Z,14.80
2017-10-15T13:48:02.738Z,14.80
2017-10-15T13:50:29.280Z,14.80
2017-10-15T13:52:56.109Z,14.70
2017-10-15T13:55:22.622Z,14.70
2017-10-15T13:57:49.081Z,14.70
2017-10-15T14:00:15.655Z,14.70
2017-10-15T14:02:42.553Z,14.70
2017-10-15T14:05:09.328Z,14.70
2017-10-15T14:07:35.843Z,14.70
2017-10-15T14:10:02.827Z,14.70
2017-10-15T14:12:30.776Z,14.80
2017-10-15T14:14:57.703Z,14.80
2017-10-15T14:17:24.605Z,14.80
2017-10-15T14:19:52.324Z,14.80
2017-10-15T14:22:19.971Z,14.80
2017-10-15T14:24:47.090Z,14.80
2017-10-15T14:27:14.972Z,14.80
2017-10-15T14:29:42.319Z,14.80
2017-10-15T14:32:09.619Z,14.80
2017-10-15T14:34:36.943Z,14.80
2017-10-15T14:37:04.953Z,14.90
2017-10-15T14:39:32.766Z,14.80
2017-10-15T14:42:00.530Z,14.90
2017-10-15T14:44:27.386Z,14.80
2017-10-15T14:46:54.672Z,14.80
2017-10-15T14:49:21.341Z,14.80
2017-10-15T14:51:48.595Z,14.80
2017-10-15T14:54:15.449Z,14.80
2017-10-15T14:56:42.341Z,14.80
2017-10-15T14:59:09.202Z,14.80
2017-10-15T15:01:36.195Z,14.80
2017-10-15T15:04:03.798Z,14.80
2017-10-15T15:06:30.580Z,14.80
2017-10-15T15:08:57.349Z,14.80
2017-10-15T15:11:24.707Z,14.70
2017-10-15T15:13:51.469Z,14.70
2017-10-15T15:16:18.475Z,14.70
2017-10-15T15:18:45.045Z,14.70
2017-10-15T15:21:12.236Z,14.70
2017-10-15T15:23:38.636Z,14.70
2017-10-15T15:26:05.351Z,14.60
2017-10-15T15:28:32.265Z,14.60
2017-10-15T15:30:59.029Z,14.60
2017-10-15T15:33:26.390Z,14.50
2017-10-15T15:35:54.352Z,14.50
2017-10-15T15:38:21.089Z,14.40
2017-10-15T15:40:47.962Z,14.50
2017-10-15T15:43:14.745Z,14.40
2017-10-15T15:45:41.498Z,14.40
2017-10-15T15:48:08.685Z,14.40
2017-10-15T15:50:36.652Z,14.30
2017-10-15T15:53:03.862Z,14.30
2017-10-15T15:55:31.227Z,14.20
2017-10-15T15:57:59.508Z,14.20
2017-10-15T16:00:27.882Z,14.20
2017-10-15T16:02:55.246Z,14.10
2017-10-15T16:05:22.735Z,14.10
2017-10-15T16:07:50.260Z,14.10
2017-10-15T16:10:17.923Z,14.00
2017-10-15T16:12:45.904Z,14.00
2017-10-15T16:15:13.462Z,13.90
2017-10-15T16:17:40.993Z,13.90
2017-10-15T16:20:09.694Z,13.90
2017-10-15T16:22:37.155Z,13.80
2017-10-15T16:25:04.780Z,13.90
2017-10-15T16:27:32.069Z,13.90
2017-10-15T16:30:00.320Z,13.70
2017-10-15T16:32:28.478Z,13.70
2017-10-15T16:34:55.977Z,13.70
2017-10-15T16:37:23.773Z,13.60
2017-10-15T16:39:51.896Z,13.50
2017-10-15T16:42:19.715Z,13.50
2017-10-15T16:44:47.472Z,13.50
2017-10-15T16:47:15.258Z,13.50
2017-10-15T16:49:43.925Z,13.40
2017-10-15T16:52:11.819Z,13.30
2017-10-15T16:54:40.088Z,13.40
2017-10-15T16:57:07.937Z,13.30
2017-10-15T16:59:35.880Z,13.20
2017-10-15T17:02:03.877Z,13.10
2017-10-15T17:04:31.782Z,13.10
2017-10-15T17:06:59.680Z,13.00
2017-10-15T17:09:27.871Z,13.00
2017-10-15T17:11:55.883Z,12.90
2017-10-15T17:14:24.633Z,12.90
2017-10-15T17:16:53.422Z,12.80
2017-10-15T17:19:22.074Z,12.80
2017-10-15T17:21:50.147Z,12.70
2017-10-15T17:24:18.149Z,12.70
2017-10-15T17:26:46.230Z,12.70
2017-10-15T17:29:14.216Z,12.60
2017-10-15T17:31:42.957Z,12.50
2017-10-15T17:34:11.037Z,12.50
2017-10-15T17:36:39.758Z,12.40
2017-10-15T17:39:08.902Z,12.40
2017-10-15T17:41:36.789Z,12.30
2017-10-15T17:44:05.119Z,12.30
2017-10-15T17:46:33.271Z,12.30
2017-10-15T17:49:01.161Z,12.20
2017-10-15T17:51:29.074Z,12.20
2017-10-15T17:53:57.911Z,12.10
2017-10-15T17:56:26.006Z,12.10
2017-10-15T17:58:55.882Z,12.10
2017-10-15T18:01:24.626Z,12.10
2017-10-15T18:03:52.539Z,12.10
2017-10-15T18:06:20.569Z,12.10
2017-10-15T18:08:48.639Z,12.00
2017-10-15T18:11:16.605Z,12.00
2017-10-15T18:13:44.605Z,12.00
2017-10-15T18:16:13.322Z,11.90
2017-10-15T18:18:41.432Z,11.90
2017-10-15T18:21:09.345Z,11.90
2017-10-15T18:23:37.291Z,11.90
2017-10-15T18:26:05.517Z,11.80
2017-10-15T18:28:34.283Z,11.80
2017-10-15T18:31:03.034Z,11.70
2017-10-15T18:33:31.089Z,11.70
2017-10-15T18:35:58.954Z,11.70
2017-10-15T18:38:27.690Z,11.70
2017-10-15T18:40:55.709Z,11.60
2017-10-15T18:43:23.767Z,11.60
2017-10-15T18:45:51.838Z,11.60
2017-10-15T18:48:19.978Z,11.60
2017-10-15T18:50:47.985Z,11.50
2017-10-15T18:53:17.283Z,11.50
2017-10-15T18:55:46.073Z,11.40
2017-10-15T18:58:14.138Z,11.40
2017-10-15T19:00:42.071Z,11.40
2017-10-15T19:03:10.923Z,11.40
2017-10-15T19:05:38.857Z,11.40
2017-10-15T19:08:06.857Z,11.40
2017-10-15T19:10:34.954Z,11.40
2017-10-15T19:13:02.983Z,11.40
2017-10-15T19:15:31.249Z,11.40
2017-10-15T19:17:59.442Z,11.30
2017-10-15T19:20:27.552Z,11.30
2017-10-15T19:22:55.589Z,11.30
2017-10-15T19:25:23.488Z,11.30
2017-10-15T19:27:52.429Z,11.30
2017-10-15T19:30:22.147Z,11.20
2017-10-15T19:32:50.212Z,11.20
2017-10-15T19:35:18.262Z,11.10
2017-10-15T19:37:46.337Z,11.10
2017-10-15T19:40:14.561Z,11.10
2017-10-15T19:42:42.559Z,11.00
2017-10-15T19:45:10.690Z,11.00
2017-10-15T19:47:38.552Z,11.00
2017-10-15T19:50:06.667Z,10.90
2017-10-15T19:52:34.682Z,10.90
2017-10-15T19:55:02.668Z,10.90
2017-10-15T19:57:30.605Z,10.90
2017-10-15T19:59:59.494Z,10.80
2017-10-15T20:02:27.397Z,10.80
2017-10-15T20:04:55.298Z,10.70
2017-10-15T20:07:23.799Z,10.70
2017-10-15T20:09:52.269Z,10.70
2017-10-15T20:12:20.342Z,10.70
2017-10-15T20:14:48.390Z,10.70
2017-10-15T20:17:16.278Z,10.70
2017-10-15T20:19:45.029Z,10.70
2017-10-15T20:22:13.062Z,10.60
2017-10-15T20:24:41.091Z,10.60
2017-10-15T20:27:09.123Z,10.60
2017-10-15T20:29:37.163Z,10.60
2017-10-15T20:32:05.182Z,10.60
2017-10-15T20:34:33.107Z,10.60
2017-10-15T20:37:01.213Z,10.60
2017-10-15T20:39:29.410Z,10.60
2017-10-15T20:41:57.495Z,10.60
2017-10-15T20:44:26.509Z,10.50
2017-10-15T20:46:55.624Z,10.40
2017-10-15T20:49:23.657Z,10.40
2017-10-15T20:51:52.401Z,10.30
2017-10-15T20:54:21.188Z,10.30
2017-10-15T20:56:49.879Z,10.30
2017-10-15T20:59:19.076Z,10.20
2017-10-15T21:01:47.090Z,10.30
2017-10-15T21:04:15.854Z,10.30
2017-10-15T21:06:43.810Z,10.30
2017-10-15T21:09:12.556Z,10.20
2017-10-15T21:11:40.535Z,10.30
2017-10-15T21:14:09.180Z,10.20
2017-10-15T21:16:37.929Z,10.10
2017-10-15T21:19:06.800Z,10.20
2017-10-15T21:21:35.986Z,10.00
2017-10-15T21:24:04.023Z,10.00
2017-10-15T21:26:31.767Z,9.90
2017-10-15T21:28:59.709Z,9.80
2017-10-15T21:31:27.676Z,9.70
2017-10-15T21:33:56.246Z,9.70
2017-10-15T21:36:24.080Z,9.70
2017-10-15T21:38:53.395Z,9.70
2017-10-15T21:41:22.960Z,9.70
2017-10-15T21:43:50.991Z,9.70
2017-10-15T21:46:17.746Z,9.50
2017-10-15T21:48:45.039Z,9.50
2017-10-15T21:51:11.560Z,9.40
2017-10-15T21:53:38.131Z,9.40
2017-10-15T21:56:04.822Z,9.40
2017-10-15T21:58:31.287Z,9.40
2017-10-15T22:00:57.731Z,9.40
2017-10-15T22:03:24.179Z,9.30
2017-10-15T22:05:50.603Z,9.20
2017-10-15T22:08:18.028Z,9.10
2017-10-15T22:10:44.408Z,9.10
2017-10-15T22:13:11.891Z,9.10
2017-10-15T22:15:38.276Z,9.20
2017-10-15T22:18:04.663Z,9.10
2017-10-15T22:20:37.945Z,9.20
2017-10-15T22:23:05.095Z,9.20
2017-10-15T22:25:32.587Z,9.20
2017-10-15T22:28:00.048Z,9.30
2017-10-15T22:30:26.435Z,9.30
2017-10-15T22:32:52.828Z,9.20
2017-10-15T22:35:20.063Z,9.30
2017-10-15T22:37:46.455Z,9.30
2017-10-15T22:40:12.885Z,9.30
2017-10-15T22:42:39.269Z,9.40
2017-10-15T22:45:05.732Z,9.50
2017-10-15T22:47:32.143Z,9.60
2017-10-15T22:49:58.575Z,9.70
2017-10-15T22:52:25.721Z,9.70
2017-10-15T22:54:52.172Z,9.70
2017-10-15T22:57:18.555Z,9.70
2017-10-15T22:59:44.927Z,9.70
2017-10-15T23:02:11.316Z,9.70
2017-10-15T23:04:37.688Z,9.80
2017-10-15T23:07:05.147Z,9.70
2017-10-15T23:09:31.556Z,9.70
2017-10-15T23:11:58.659Z,9.60
2017-10-15T23:14:26.534Z,9.50
2017-10-15T23:16:52.980Z,9.50
2017-10-15T23:19:19.371Z,9.60
2017-10-15T23:21:45.795Z,9.50
2017-10-15T23:24:12.179Z,9.50
2017-10-15T23:26:38.555Z,9.50
2017-10-15T23:29:04.907Z,9.40
2017-10-15T23:31:31.282Z,9.40
2017-10-15T23:33:57.739Z,9.40
2017-10-15T23:36:24.158Z,9.30
2017-10-15T23:38:50.603Z,9.30
2017-10-15T23:41:17.740Z,9.20
2017-10-15T23:43:44.851Z,9.20
2017-10-15T23:46:12.038Z,9.10
2017-10-15T23:48:38.429Z,9.10
2017-10-15T23:51:04.827Z,9.10
2017-10-15T23:53:31.236Z,9.00
2017-10-15T23:55:57.628Z,9.00
2017-10-15T23:58:24.048Z,9.00
